sensor_id;sensor_type;location;lat;lon;timestamp;pressure;altitude;pressure_sealevel;temperature;humidity
33191;BME280;19554;42.652;23.364;2022-12-07T00:01:10;94615.81;;;7.23;72.97
33191;BME280;19554;42.652;23.364;2022-12-07T00:03:36;94618.22;;;7.30;72.93
33191;BME280;19554;42.652;23.364;2022-12-07T00:06:04;94616.88;;;7.32;72.73
33191;BME280;19554;42.652;23.364;2022-12-07T00:08:31;94620.06;;;7.29;73.12
33191;BME280;19554;42.652;23.364;2022-12-07T00:11:07;94598.56;;;7.16;73.16
33191;BME280;19554;42.652;23.364;2022-12-07T00:13:34;94568.84;;;7.03;72.94
33191;BME280;19554;42.652;23.364;2022-12-07T00:16:06;94544.19;;;6.87;72.73
33191;BME280;19554;42.652;23.364;2022-12-07T00:18:32;94593.78;;;7.23;72.60
33191;BME280;19554;42.652;23.364;2022-12-07T00:21:08;94526.38;;;6.83;72.52
33191;BME280;19554;42.652;23.364;2022-12-07T00:23:34;94608.38;;;7.41;72.44
33191;BME280;19554;42.652;23.364;2022-12-07T00:26:18;94607.31;;;7.42;72.40
33191;BME280;19554;42.652;23.364;2022-12-07T00:28:46;94565.41;;;7.18;72.28
33191;BME280;19554;42.652;23.364;2022-12-07T00:31:12;94559.56;;;7.16;72.26
33191;BME280;19554;42.652;23.364;2022-12-07T00:33:39;94605.97;;;7.44;72.18
33191;BME280;19554;42.652;23.364;2022-12-07T00:36:07;94589.00;;;7.30;72.23
33191;BME280;19554;42.652;23.364;2022-12-07T00:38:34;94609.72;;;7.33;72.71
33191;BME280;19554;42.652;23.364;2022-12-07T00:41:02;94605.47;;;7.17;72.76
33191;BME280;19554;42.652;23.364;2022-12-07T00:43:28;94554.25;;;6.91;72.53
33191;BME280;19554;42.652;23.364;2022-12-07T00:45:54;94615.03;;;7.33;72.74
33191;BME280;19554;42.652;23.364;2022-12-07T00:48:20;94604.13;;;7.29;73.03
33191;BME280;19554;42.652;23.364;2022-12-07T00:50:47;94547.34;;;7.00;72.68
33191;BME280;19554;42.652;23.364;2022-12-07T00:53:12;94527.75;;;6.80;72.48
33191;BME280;19554;42.652;23.364;2022-12-07T00:55:38;94603.09;;;7.15;72.89
33191;BME280;19554;42.652;23.364;2022-12-07T00:58:03;94530.91;;;6.67;73.66
33191;BME280;19554;42.652;23.364;2022-12-07T01:00:29;94598.31;;;7.02;73.89
33191;BME280;19554;42.652;23.364;2022-12-07T01:02:55;94603.88;;;7.05;74.12
33191;BME280;19554;42.652;23.364;2022-12-07T01:05:21;94460.63;;;6.24;73.87
33191;BME280;19554;42.652;23.364;2022-12-07T01:07:46;94540.72;;;6.77;73.99
33191;BME280;19554;42.652;23.364;2022-12-07T01:10:13;94600.41;;;7.20;73.75
33191;BME280;19554;42.652;23.364;2022-12-07T01:12:39;94600.41;;;7.20;73.62
33191;BME280;19554;42.652;23.364;2022-12-07T01:15:05;94563.28;;;7.00;73.45
33191;BME280;19554;42.652;23.364;2022-12-07T01:17:30;94577.06;;;7.12;73.19
33191;BME280;19554;42.652;23.364;2022-12-07T01:19:56;94515.50;;;6.79;72.92
33191;BME280;19554;42.652;23.364;2022-12-07T01:22:21;94571.25;;;7.15;72.95
33191;BME280;19554;42.652;23.364;2022-12-07T01:24:46;94582.91;;;7.29;72.98
33191;BME280;19554;42.652;23.364;2022-12-07T01:27:13;94440.22;;;6.34;72.79
33191;BME280;19554;42.652;23.364;2022-12-07T01:29:38;94579.19;;;7.30;72.85
33191;BME280;19554;42.652;23.364;2022-12-07T01:32:04;94578.38;;;7.30;72.72
33191;BME280;19554;42.652;23.364;2022-12-07T01:34:29;94459.56;;;6.50;72.75
33191;BME280;19554;42.652;23.364;2022-12-07T01:36:55;94533.56;;;6.87;73.21
33191;BME280;19554;42.652;23.364;2022-12-07T01:39:20;94563.28;;;7.00;73.53
33191;BME280;19554;42.652;23.364;2022-12-07T01:41:46;94553.19;;;6.97;73.33
33191;BME280;19554;42.652;23.364;2022-12-07T01:44:16;94581.84;;;7.25;73.38
33191;BME280;19554;42.652;23.364;2022-12-07T01:47:03;94581.31;;;7.28;73.24
33191;BME280;19554;42.652;23.364;2022-12-07T01:49:36;94577.31;;;7.31;73.33
33191;BME280;19554;42.652;23.364;2022-12-07T01:52:25;94582.38;;;7.32;73.05
33191;BME280;19554;42.652;23.364;2022-12-07T01:55:00;94557.16;;;7.20;72.99
33191;BME280;19554;42.652;23.364;2022-12-07T01:57:26;94554.78;;;7.18;73.13
33191;BME280;19554;42.652;23.364;2022-12-07T01:59:53;94571.75;;;7.32;73.14
33191;BME280;19554;42.652;23.364;2022-12-07T02:02:23;94552.91;;;7.24;73.01
33191;BME280;19554;42.652;23.364;2022-12-07T02:04:53;94484.75;;;6.88;72.82
33191;BME280;19554;42.652;23.364;2022-12-07T02:07:21;94563.75;;;7.38;72.76
33191;BME280;19554;42.652;23.364;2022-12-07T02:09:46;94494.81;;;6.97;72.37
33191;BME280;19554;42.652;23.364;2022-12-07T02:12:12;94498.00;;;6.99;72.68
33191;BME280;19554;42.652;23.364;2022-12-07T02:14:37;94558.75;;;7.36;72.75
33191;BME280;19554;42.652;23.364;2022-12-07T02:17:20;94563.25;;;7.20;72.72
33191;BME280;19554;42.652;23.364;2022-12-07T02:28:12;94561.41;;;6.90;74.40
33191;BME280;19554;42.652;23.364;2022-12-07T02:30:47;94546.84;;;6.87;73.94
33191;BME280;19554;42.652;23.364;2022-12-07T02:33:17;94553.44;;;7.00;74.21
33191;BME280;19554;42.652;23.364;2022-12-07T02:41:42;94544.19;;;7.08;73.52
33191;BME280;19554;42.652;23.364;2022-12-07T02:44:12;94437.00;;;6.32;73.30
33191;BME280;19554;42.652;23.364;2022-12-07T02:46:51;94499.59;;;6.69;73.63
33191;BME280;19554;42.652;23.364;2022-12-07T02:49:18;94554.25;;;7.01;73.75
33191;BME280;19554;42.652;23.364;2022-12-07T02:51:46;94558.50;;;6.97;74.17
33191;BME280;19554;42.652;23.364;2022-12-07T02:54:13;94562.47;;;6.99;73.99
33191;BME280;19554;42.652;23.364;2022-12-07T03:10:57;94429.59;;;6.34;73.67
33191;BME280;19554;42.652;23.364;2022-12-07T03:16:18;94520.81;;;7.00;73.40
33191;BME280;19554;42.652;23.364;2022-12-07T03:18:57;94506.50;;;6.91;73.91
33191;BME280;19554;42.652;23.364;2022-12-07T03:21:31;94513.91;;;6.83;74.00
33191;BME280;19554;42.652;23.364;2022-12-07T03:24:00;94528.50;;;6.96;73.96
33191;BME280;19554;42.652;23.364;2022-12-07T03:26:34;94495.91;;;6.80;73.91
33191;BME280;19554;42.652;23.364;2022-12-07T03:29:05;94465.41;;;6.68;73.66
33191;BME280;19554;42.652;23.364;2022-12-07T03:31:35;94522.16;;;7.02;72.87
33191;BME280;19554;42.652;23.364;2022-12-07T03:34:10;94524.78;;;7.02;72.28
33191;BME280;19554;42.652;23.364;2022-12-07T03:37:02;94524.25;;;7.00;72.38
33191;BME280;19554;42.652;23.364;2022-12-07T03:39:39;94529.81;;;6.94;72.16
33191;BME280;19554;42.652;23.364;2022-12-07T03:42:07;94476.81;;;6.48;72.64
33191;BME280;19554;42.652;23.364;2022-12-07T03:44:36;94518.72;;;6.71;73.02
33191;BME280;19554;42.652;23.364;2022-12-07T03:47:06;94529.31;;;6.71;72.66
33191;BME280;19554;42.652;23.364;2022-12-07T03:49:45;94525.84;;;6.55;73.61
33191;BME280;19554;42.652;23.364;2022-12-07T03:55:14;94528.50;;;6.55;74.38
33191;BME280;19554;42.652;23.364;2022-12-07T03:57:43;94414.97;;;5.86;74.02
33191;BME280;19554;42.652;23.364;2022-12-07T04:00:11;94521.59;;;6.59;73.82
33191;BME280;19554;42.652;23.364;2022-12-07T04:02:37;94417.38;;;5.92;73.51
33191;BME280;19554;42.652;23.364;2022-12-07T04:05:03;94476.25;;;6.30;73.93
33191;BME280;19554;42.652;23.364;2022-12-07T04:07:28;94522.41;;;6.60;74.04
33191;BME280;19554;42.652;23.364;2022-12-07T04:09:54;94523.22;;;6.60;73.82
33191;BME280;19554;42.652;23.364;2022-12-07T04:12:22;94507.56;;;6.64;73.56
33191;BME280;19554;42.652;23.364;2022-12-07T04:14:48;94522.97;;;6.67;73.18
33191;BME280;19554;42.652;23.364;2022-12-07T04:17:13;94451.59;;;6.25;72.91
33191;BME280;19554;42.652;23.364;2022-12-07T04:19:39;94437.28;;;6.15;72.50
33191;BME280;19554;42.652;23.364;2022-12-07T04:22:05;94414.47;;;6.04;71.99
33191;BME280;19554;42.652;23.364;2022-12-07T04:24:31;94514.19;;;6.72;72.70
33191;BME280;19554;42.652;23.364;2022-12-07T04:26:57;94524.00;;;6.71;72.96
33191;BME280;19554;42.652;23.364;2022-12-07T04:29:23;94450.25;;;6.22;72.67
33191;BME280;19554;42.652;23.364;2022-12-07T04:31:48;94450.81;;;6.19;72.84
33191;BME280;19554;42.652;23.364;2022-12-07T04:34:14;94337.81;;;5.41;72.63
33191;BME280;19554;42.652;23.364;2022-12-07T04:36:40;94440.19;;;6.04;72.53
33191;BME280;19554;42.652;23.364;2022-12-07T04:39:07;94517.91;;;6.60;72.37
33191;BME280;19554;42.652;23.364;2022-12-07T04:41:33;94504.38;;;6.52;72.18
33191;BME280;19554;42.652;23.364;2022-12-07T04:44:00;94537.28;;;6.61;71.98
33191;BME280;19554;42.652;23.364;2022-12-07T04:46:27;94530.34;;;6.55;72.33
33191;BME280;19554;42.652;23.364;2022-12-07T04:48:53;94514.44;;;6.45;72.34
33191;BME280;19554;42.652;23.364;2022-12-07T04:51:27;94535.13;;;6.58;72.73
33191;BME280;19554;42.652;23.364;2022-12-07T04:53:54;94520.53;;;6.45;72.58
33191;BME280;19554;42.652;23.364;2022-12-07T04:56:20;94537.25;;;6.56;72.16
33191;BME280;19554;42.652;23.364;2022-12-07T04:58:48;94501.72;;;6.36;71.93
33191;BME280;19554;42.652;23.364;2022-12-07T05:01:15;94530.34;;;6.55;72.28
33191;BME280;19554;42.652;23.364;2022-12-07T05:03:40;94493.75;;;6.31;72.32
33191;BME280;19554;42.652;23.364;2022-12-07T05:06:07;94462.44;;;6.18;72.22
33191;BME280;19554;42.652;23.364;2022-12-07T05:08:33;94460.31;;;6.10;72.05
33191;BME280;19554;42.652;23.364;2022-12-07T05:10:59;94450.50;;;6.00;71.57
33191;BME280;19554;42.652;23.364;2022-12-07T05:13:25;94536.19;;;6.52;71.87
33191;BME280;19554;42.652;23.364;2022-12-07T05:15:50;94490.00;;;6.22;71.88
33191;BME280;19554;42.652;23.364;2022-12-07T05:18:16;94464.81;;;5.99;72.06
33191;BME280;19554;42.652;23.364;2022-12-07T05:20:42;94521.56;;;6.29;71.84
33191;BME280;19554;42.652;23.364;2022-12-07T05:23:08;94542.50;;;6.35;72.33
33191;BME280;19554;42.652;23.364;2022-12-07T05:25:34;94538.03;;;6.36;72.51
33191;BME280;19554;42.652;23.364;2022-12-07T05:27:59;94534.03;;;6.38;72.62
33191;BME280;19554;42.652;23.364;2022-12-07T05:30:26;94527.69;;;6.39;72.27
33191;BME280;19554;42.652;23.364;2022-12-07T05:32:52;94410.94;;;5.58;72.56
33191;BME280;19554;42.652;23.364;2022-12-07T05:35:18;94444.31;;;5.74;72.61
33191;BME280;19554;42.652;23.364;2022-12-07T05:37:44;94540.41;;;6.37;72.54
33191;BME280;19554;42.652;23.364;2022-12-07T05:40:10;94538.31;;;6.39;72.57
33191;BME280;19554;42.652;23.364;2022-12-07T05:42:36;94529.28;;;6.40;72.92
33191;BME280;19554;42.652;23.364;2022-12-07T05:45:02;94527.69;;;6.39;72.33
33191;BME280;19554;42.652;23.364;2022-12-07T05:47:29;94522.91;;;6.36;71.99
33191;BME280;19554;42.652;23.364;2022-12-07T05:49:54;94528.47;;;6.30;72.65
33191;BME280;19554;42.652;23.364;2022-12-07T05:52:20;94435.81;;;5.67;73.38
33191;BME280;19554;42.652;23.364;2022-12-07T05:54:45;94522.63;;;6.28;73.98
33191;BME280;19554;42.652;23.364;2022-12-07T05:57:11;94514.41;;;6.24;75.11
33191;BME280;19554;42.652;23.364;2022-12-07T05:59:36;94523.44;;;6.23;75.65
33191;BME280;19554;42.652;23.364;2022-12-07T06:02:10;94524.22;;;6.24;76.29
33191;BME280;19554;42.652;23.364;2022-12-07T06:04:38;94509.09;;;6.14;76.04
33191;BME280;19554;42.652;23.364;2022-12-07T06:07:05;94500.06;;;6.15;75.46
33191;BME280;19554;42.652;23.364;2022-12-07T06:09:31;94484.63;;;5.91;75.07
33191;BME280;19554;42.652;23.364;2022-12-07T06:11:57;94467.34;;;5.74;75.94
33191;BME280;19554;42.652;23.364;2022-12-07T06:14:41;94524.44;;;6.07;75.97
33191;BME280;19554;42.652;23.364;2022-12-07T06:17:07;94526.81;;;6.08;76.27
33191;BME280;19554;42.652;23.364;2022-12-07T06:19:33;94530.28;;;6.14;76.23
33191;BME280;19554;42.652;23.364;2022-12-07T06:21:58;94529.75;;;6.17;76.55
33191;BME280;19554;42.652;23.364;2022-12-07T06:24:24;94511.72;;;6.04;76.57
33191;BME280;19554;42.652;23.364;2022-12-07T06:26:49;94518.09;;;6.13;76.66
33191;BME280;19554;42.652;23.364;2022-12-07T06:29:16;94539.34;;;6.33;75.83
33191;BME280;19554;42.652;23.364;2022-12-07T06:31:41;94501.69;;;6.21;75.58
33191;BME280;19554;42.652;23.364;2022-12-07T06:34:10;94536.19;;;6.52;74.95
33191;BME280;19554;42.652;23.364;2022-12-07T06:36:37;94545.75;;;6.58;73.41
33191;BME280;19554;42.652;23.364;2022-12-07T06:39:02;94541.00;;;6.60;72.40
33191;BME280;19554;42.652;23.364;2022-12-07T06:41:28;94526.88;;;6.39;72.69
33191;BME280;19554;42.652;23.364;2022-12-07T06:43:53;94519.19;;;6.43;72.90
33191;BME280;19554;42.652;23.364;2022-12-07T06:46:19;94541.00;;;6.60;72.94
33191;BME280;19554;42.652;23.364;2022-12-07T06:48:45;94547.88;;;6.66;72.62
33191;BME280;19554;42.652;23.364;2022-12-07T06:51:10;94548.13;;;6.70;72.55
33191;BME280;19554;42.652;23.364;2022-12-07T06:53:36;94530.66;;;6.63;72.57
33191;BME280;19554;42.652;23.364;2022-12-07T06:56:03;94526.66;;;6.66;73.05
33191;BME280;19554;42.652;23.364;2022-12-07T06:58:29;94409.66;;;5.91;73.16
33191;BME280;19554;42.652;23.364;2022-12-07T07:00:55;94547.88;;;6.81;72.81
33191;BME280;19554;42.652;23.364;2022-12-07T07:03:20;94495.34;;;6.53;72.63
33191;BME280;19554;42.652;23.364;2022-12-07T07:05:46;94546.31;;;6.91;72.34
33191;BME280;19554;42.652;23.364;2022-12-07T07:08:12;94548.16;;;6.95;72.51
33191;BME280;19554;42.652;23.364;2022-12-07T07:10:38;94546.81;;;7.03;72.47
33191;BME280;19554;42.652;23.364;2022-12-07T07:13:04;94542.03;;;7.00;72.89
33191;BME280;19554;42.652;23.364;2022-12-07T07:15:30;94505.44;;;6.81;72.97
33191;BME280;19554;42.652;23.364;2022-12-07T07:17:55;94534.59;;;7.12;72.72
33191;BME280;19554;42.652;23.364;2022-12-07T07:20:21;94539.38;;;7.15;72.74
33191;BME280;19554;42.652;23.364;2022-12-07T07:22:46;94556.91;;;7.06;73.19
33191;BME280;19554;42.652;23.364;2022-12-07T07:25:11;94551.59;;;7.16;73.13
33191;BME280;19554;42.652;23.364;2022-12-07T07:27:37;94518.16;;;7.00;73.17
33191;BME280;19554;42.652;23.364;2022-12-07T07:30:03;94455.59;;;6.68;73.13
33191;BME280;19554;42.652;23.364;2022-12-07T07:32:28;94552.09;;;7.33;72.96
33191;BME280;19554;42.652;23.364;2022-12-07T07:34:54;94545.72;;;7.40;72.91
33191;BME280;19554;42.652;23.364;2022-12-07T07:37:19;94536.97;;;7.34;73.04
33191;BME280;19554;42.652;23.364;2022-12-07T07:39:45;94556.84;;;7.47;73.12
33191;BME280;19554;42.652;23.364;2022-12-07T07:42:10;94540.13;;;7.46;73.31
33191;BME280;19554;42.652;23.364;2022-12-07T07:44:35;94539.31;;;7.56;73.18
33191;BME280;19554;42.652;23.364;2022-12-07T07:47:01;94510.69;;;7.17;74.06
33191;BME280;19554;42.652;23.364;2022-12-07T07:49:26;94553.91;;;7.64;73.94
33191;BME280;19554;42.652;23.364;2022-12-07T07:51:52;94535.56;;;7.67;73.92
33191;BME280;19554;42.652;23.364;2022-12-07T07:54:17;94492.06;;;7.43;74.07
33191;BME280;19554;42.652;23.364;2022-12-07T07:56:42;94541.00;;;7.96;73.74
33191;BME280;19554;42.652;23.364;2022-12-07T07:59:08;94545.19;;;8.13;73.08
33191;BME280;19554;42.652;23.364;2022-12-07T08:01:33;94446.31;;;7.61;72.94
33191;BME280;19554;42.652;23.364;2022-12-07T08:03:59;94544.31;;;8.32;72.45
33191;BME280;19554;42.652;23.364;2022-12-07T08:06:24;94541.09;;;8.36;72.05
33191;BME280;19554;42.652;23.364;2022-12-07T08:08:50;94522.56;;;8.20;71.85
33191;BME280;19554;42.652;23.364;2022-12-07T08:11:15;94545.13;;;8.38;71.30
33191;BME280;19554;42.652;23.364;2022-12-07T08:13:40;94527.56;;;8.32;71.20
33191;BME280;19554;42.652;23.364;2022-12-07T08:16:10;94543.66;;;8.01;71.71
33191;BME280;19554;42.652;23.364;2022-12-07T08:18:36;94502.13;;;7.56;72.72
33191;BME280;19554;42.652;23.364;2022-12-07T08:21:03;94531.91;;;7.38;73.67
33191;BME280;19554;42.652;23.364;2022-12-07T08:23:29;94549.72;;;7.42;74.71
33191;BME280;19554;42.652;23.364;2022-12-07T08:25:59;94544.84;;;7.70;73.68
33191;BME280;19554;42.652;23.364;2022-12-07T08:28:25;94543.00;;;7.55;74.13
33191;BME280;19554;42.652;23.364;2022-12-07T08:30:50;94509.03;;;7.52;73.67
33191;BME280;19554;42.652;23.364;2022-12-07T08:33:15;94508.06;;;7.22;73.85
33191;BME280;19554;42.652;23.364;2022-12-07T08:35:41;94483.66;;;7.10;74.50
33191;BME280;19554;42.652;23.364;2022-12-07T08:38:06;94528.22;;;7.28;74.72
33191;BME280;19554;42.652;23.364;2022-12-07T08:40:32;94549.13;;;7.55;74.67
33191;BME280;19554;42.652;23.364;2022-12-07T08:42:57;94542.41;;;7.78;73.69
33191;BME280;19554;42.652;23.364;2022-12-07T08:45:22;94518.59;;;7.53;73.99
33191;BME280;19554;42.652;23.364;2022-12-07T08:47:55;94445.09;;;7.28;73.66
33191;BME280;19554;42.652;23.364;2022-12-07T08:50:23;94493.34;;;7.60;73.45
33191;BME280;19554;42.652;23.364;2022-12-07T08:52:55;94533.34;;;7.90;73.41
33191;BME280;19554;42.652;23.364;2022-12-07T08:55:22;94515.34;;;7.71;73.04
33191;BME280;19554;42.652;23.364;2022-12-07T08:57:48;94529.59;;;7.96;73.26
33191;BME280;19554;42.652;23.364;2022-12-07T09:00:15;94519.44;;;8.08;72.75
33191;BME280;19554;42.652;23.364;2022-12-07T09:02:43;94429.84;;;7.64;72.19
33191;BME280;19554;42.652;23.364;2022-12-07T09:05:08;94517.19;;;8.30;71.40
33191;BME280;19554;42.652;23.364;2022-12-07T09:07:35;94461.75;;;8.08;71.24
33191;BME280;19554;42.652;23.364;2022-12-07T09:10:00;94518.16;;;8.50;71.09
33191;BME280;19554;42.652;23.364;2022-12-07T09:12:26;94524.50;;;8.59;70.57
33191;BME280;19554;42.652;23.364;2022-12-07T09:14:51;94511.94;;;8.65;70.25
33191;BME280;19554;42.652;23.364;2022-12-07T09:17:17;94518.06;;;8.65;70.17
33191;BME280;19554;42.652;23.364;2022-12-07T09:19:42;94491.16;;;8.27;70.87
33191;BME280;19554;42.652;23.364;2022-12-07T09:22:08;94486.41;;;8.24;71.43
33191;BME280;19554;42.652;23.364;2022-12-07T09:24:34;94495.66;;;8.27;71.60
33191;BME280;19554;42.652;23.364;2022-12-07T09:26:59;94486.59;;;8.38;71.09
33191;BME280;19554;42.652;23.364;2022-12-07T09:29:25;94497.97;;;8.49;70.97
33191;BME280;19554;42.652;23.364;2022-12-07T09:31:51;94498.75;;;8.49;70.62
33191;BME280;19554;42.652;23.364;2022-12-07T09:34:16;94476.25;;;8.31;70.83
33191;BME280;19554;42.652;23.364;2022-12-07T09:36:43;94491.63;;;8.40;71.23
33191;BME280;19554;42.652;23.364;2022-12-07T09:39:08;94411.09;;;7.90;71.27
33191;BME280;19554;42.652;23.364;2022-12-07T09:41:37;94471.91;;;8.46;70.99
33191;BME280;19554;42.652;23.364;2022-12-07T09:44:11;94381.34;;;7.43;72.26
33191;BME280;19554;42.652;23.364;2022-12-07T09:46:40;94465.81;;;7.96;72.69
33191;BME280;19554;42.652;23.364;2022-12-07T09:49:16;94430.34;;;7.71;73.03
33191;BME280;19554;42.652;23.364;2022-12-07T09:51:42;94468.16;;;8.07;72.80
33191;BME280;19554;42.652;23.364;2022-12-07T09:54:09;94470.75;;;8.18;72.44
33191;BME280;19554;42.652;23.364;2022-12-07T09:56:37;94460.47;;;8.01;72.69
33191;BME280;19554;42.652;23.364;2022-12-07T09:59:03;94474.81;;;8.05;72.78
33191;BME280;19554;42.652;23.364;2022-12-07T10:01:33;94465.44;;;8.13;72.52
33191;BME280;19554;42.652;23.364;2022-12-07T10:04:15;94464.13;;;8.15;72.62
33191;BME280;19554;42.652;23.364;2022-12-07T10:06:42;94458.03;;;8.10;73.08
33191;BME280;19554;42.652;23.364;2022-12-07T10:09:12;94402.63;;;7.88;72.35
33191;BME280;19554;42.652;23.364;2022-12-07T10:12:01;94446.28;;;8.16;72.53
33191;BME280;19554;42.652;23.364;2022-12-07T10:14:28;94444.97;;;8.18;72.68
33191;BME280;19554;42.652;23.364;2022-12-07T10:16:54;94436.38;;;8.26;72.50
33191;BME280;19554;42.652;23.364;2022-12-07T10:19:29;94440.66;;;8.27;72.32
33191;BME280;19554;42.652;23.364;2022-12-07T10:22:12;94439.84;;;8.27;72.16
33191;BME280;19554;42.652;23.364;2022-12-07T10:24:40;94431.44;;;8.10;72.76
33191;BME280;19554;42.652;23.364;2022-12-07T10:27:22;94445.38;;;8.36;72.42
33191;BME280;19554;42.652;23.364;2022-12-07T10:29:52;94431.72;;;8.47;72.48
33191;BME280;19554;42.652;23.364;2022-12-07T10:34:43;94391.16;;;8.66;71.15
33191;BME280;19554;42.652;23.364;2022-12-07T10:42:25;94409.94;;;9.04;70.09
33191;BME280;19554;42.652;23.364;2022-12-07T10:45:27;94408.53;;;9.11;69.50
33191;BME280;19554;42.652;23.364;2022-12-07T11:01:58;94383.94;;;9.19;68.85
33191;BME280;19554;42.652;23.364;2022-12-07T11:04:51;94373.91;;;9.11;68.04
33191;BME280;19554;42.652;23.364;2022-12-07T11:07:28;94373.28;;;9.19;68.20
33191;BME280;19554;42.652;23.364;2022-12-07T11:15:53;94373.66;;;9.13;68.19
33191;BME280;19554;42.652;23.364;2022-12-07T11:18:28;94342.63;;;9.03;68.29
33191;BME280;19554;42.652;23.364;2022-12-07T11:31:48;94354.59;;;9.24;68.33
33191;BME280;19554;42.652;23.364;2022-12-07T11:36:47;94318.53;;;9.32;67.05
33191;BME280;19554;42.652;23.364;2022-12-07T11:39:31;94331.91;;;9.51;67.01
33191;BME280;19554;42.652;23.364;2022-12-07T11:42:06;94332.16;;;9.49;67.07
33191;BME280;19554;42.652;23.364;2022-12-07T11:44:47;94343.56;;;9.55;66.98
33191;BME280;19554;42.652;23.364;2022-12-07T11:47:36;94342.63;;;9.65;66.52
33191;BME280;19554;42.652;23.364;2022-12-07T11:53:52;94277.75;;;9.37;66.04
33191;BME280;19554;42.652;23.364;2022-12-07T11:56:20;94313.44;;;9.36;66.33
33191;BME280;19554;42.652;23.364;2022-12-07T11:59:23;94319.50;;;9.41;67.12
33191;BME280;19554;42.652;23.364;2022-12-07T12:01:55;94322.03;;;9.52;67.09
33191;BME280;19554;42.652;23.364;2022-12-07T12:06:53;94302.66;;;9.46;67.12
33191;BME280;19554;42.652;23.364;2022-12-07T12:09:31;94289.84;;;9.48;67.01
33191;BME280;19554;42.652;23.364;2022-12-07T12:20:29;94292.69;;;9.70;66.60
33191;BME280;19554;42.652;23.364;2022-12-07T12:25:39;94241.47;;;9.41;66.14
33191;BME280;19554;42.652;23.364;2022-12-07T12:28:05;94294.94;;;9.82;66.18
33191;BME280;19554;42.652;23.364;2022-12-07T12:30:39;94296.94;;;9.90;66.32
33191;BME280;19554;42.652;23.364;2022-12-07T12:33:26;94286.16;;;9.82;65.92
33191;BME280;19554;42.652;23.364;2022-12-07T12:47:02;94266.59;;;9.35;66.60
33191;BME280;19554;42.652;23.364;2022-12-07T12:55:00;94265.16;;;9.23;67.87
33191;BME280;19554;42.652;23.364;2022-12-07T12:57:29;94205.09;;;8.93;66.93
33191;BME280;19554;42.652;23.364;2022-12-07T13:23:21;94273.97;;;9.76;66.00
33191;BME280;19554;42.652;23.364;2022-12-07T13:28:49;94275.13;;;9.69;66.37
33191;BME280;19554;42.652;23.364;2022-12-07T13:31:34;94273.41;;;9.79;66.29
33191;BME280;19554;42.652;23.364;2022-12-07T13:34:01;94270.81;;;9.73;66.13
33191;BME280;19554;42.652;23.364;2022-12-07T13:36:29;94259.56;;;9.77;66.25
33191;BME280;19554;42.652;23.364;2022-12-07T13:39:11;94211.34;;;9.59;65.81
33191;BME280;19554;42.652;23.364;2022-12-07T13:41:42;94251.28;;;9.78;65.99
33191;BME280;19554;42.652;23.364;2022-12-07T13:44:13;94258.19;;;9.79;66.49
33191;BME280;19554;42.652;23.364;2022-12-07T13:49:28;94240.34;;;9.80;66.12
33191;BME280;19554;42.652;23.364;2022-12-07T13:51:55;94258.09;;;10.03;66.20
33191;BME280;19554;42.652;23.364;2022-12-07T13:54:31;94238.63;;;10.03;65.87
33191;BME280;19554;42.652;23.364;2022-12-07T13:56:58;94243.28;;;10.11;65.40
33191;BME280;19554;42.652;23.364;2022-12-07T13:59:25;94246.25;;;10.09;65.92
33191;BME280;19554;42.652;23.364;2022-12-07T14:01:51;94227.66;;;10.04;65.87
33191;BME280;19554;42.652;23.364;2022-12-07T14:04:36;94241.31;;;10.16;65.90
33191;BME280;19554;42.652;23.364;2022-12-07T14:07:24;94238.16;;;10.14;65.62
33191;BME280;19554;42.652;23.364;2022-12-07T14:09:58;94249.41;;;10.11;65.76
33191;BME280;19554;42.652;23.364;2022-12-07T14:12:25;94259.06;;;10.07;66.19
33191;BME280;19554;42.652;23.364;2022-12-07T14:14:51;94252.75;;;10.03;66.56
33191;BME280;19554;42.652;23.364;2022-12-07T14:17:22;94261.16;;;10.10;66.32
33191;BME280;19554;42.652;23.364;2022-12-07T14:22:35;94267.47;;;10.14;66.09
33191;BME280;19554;42.652;23.364;2022-12-07T14:27:39;94270.16;;;10.14;66.12
33191;BME280;19554;42.652;23.364;2022-12-07T14:30:15;94258.50;;;10.10;66.03
33191;BME280;19554;42.652;23.364;2022-12-07T14:32:42;94200.53;;;9.69;66.20
33191;BME280;19554;42.652;23.364;2022-12-07T14:35:16;94267.00;;;10.12;66.24
33191;BME280;19554;42.652;23.364;2022-12-07T14:37:43;94189.44;;;9.62;66.27
33191;BME280;19554;42.652;23.364;2022-12-07T14:40:14;94262.72;;;10.11;66.26
33191;BME280;19554;42.652;23.364;2022-12-07T14:42:40;94205.28;;;9.72;66.49
33191;BME280;19554;42.652;23.364;2022-12-07T14:45:13;94226.44;;;9.83;66.58
33191;BME280;19554;42.652;23.364;2022-12-07T14:47:39;94240.88;;;9.95;66.69
33191;BME280;19554;42.652;23.364;2022-12-07T14:50:05;94248.00;;;10.00;66.85
33191;BME280;19554;42.652;23.364;2022-12-07T14:52:31;94211.31;;;9.78;66.84
33191;BME280;19554;42.652;23.364;2022-12-07T14:54:56;94234.31;;;9.88;66.70
33191;BME280;19554;42.652;23.364;2022-12-07T14:57:22;94261.94;;;10.11;66.40
33191;BME280;19554;42.652;23.364;2022-12-07T14:59:48;94270.72;;;10.11;66.46
33191;BME280;19554;42.652;23.364;2022-12-07T15:02:14;94257.00;;;10.04;66.50
33191;BME280;19554;42.652;23.364;2022-12-07T15:04:40;94277.75;;;10.07;66.87
33191;BME280;19554;42.652;23.364;2022-12-07T15:07:10;94279.41;;;10.03;66.74
33191;BME280;19554;42.652;23.364;2022-12-07T15:09:38;94218.84;;;9.57;66.42
33191;BME280;19554;42.652;23.364;2022-12-07T15:12:03;94275.81;;;9.94;66.20
33191;BME280;19554;42.652;23.364;2022-12-07T15:14:29;94279.38;;;9.89;66.19
33191;BME280;19554;42.652;23.364;2022-12-07T15:16:54;94280.31;;;9.80;66.69
33191;BME280;19554;42.652;23.364;2022-12-07T15:19:22;94225.06;;;9.34;66.78
33191;BME280;19554;42.652;23.364;2022-12-07T15:21:49;94286.09;;;9.68;66.99
33191;BME280;19554;42.652;23.364;2022-12-07T15:24:15;94276.53;;;9.48;67.18
33191;BME280;19554;42.652;23.364;2022-12-07T15:26:40;94287.09;;;9.53;67.24
33191;BME280;19554;42.652;23.364;2022-12-07T15:29:06;94224.16;;;9.19;67.02
33191;BME280;19554;42.652;23.364;2022-12-07T15:31:32;94275.44;;;9.49;66.76